sensor_id;sensor_type;location;lat;lon;timestamp;pressure;altitude;pressure_sealevel;temperature;humidity
72061;BME280;59925;52.136;5.420;2023-05-03T00:00:51;103152.06;;;6.09;66.88
72061;BME280;59925;52.136;5.420;2023-05-03T00:03:17;103152.91;;;6.09;66.92
72061;BME280;59925;52.136;5.420;2023-05-03T00:05:48;103148.16;;;6.05;66.61
72061;BME280;59925;52.136;5.420;2023-05-03T00:08:15;103138.19;;;5.98;66.87
72061;BME280;59925;52.136;5.420;2023-05-03T00:10:42;103143.69;;;5.97;67.27
72061;BME280;59925;52.136;5.420;2023-05-03T00:13:08;103143.03;;;5.95;67.36
72061;BME280;59925;52.136;5.420;2023-05-03T00:15:34;103141.94;;;5.89;67.10
72061;BME280;59925;52.136;5.420;2023-05-03T00:18:01;103144.78;;;5.88;67.10
72061;BME280;59925;52.136;5.420;2023-05-03T00:20:28;103142.28;;;5.86;66.77
72061;BME280;59925;52.136;5.420;2023-05-03T00:22:54;103146.34;;;5.82;67.10
72061;BME280;59925;52.136;5.420;2023-05-03T00:25:21;103143.38;;;5.77;67.47
72061;BME280;59925;52.136;5.420;2023-05-03T00:27:47;103145.19;;;5.76;67.26
72061;BME280;59925;52.136;5.420;2023-05-03T00:30:13;103146.22;;;5.75;67.62
72061;BME280;59925;52.136;5.420;2023-05-03T00:32:40;103146.94;;;5.69;67.76
72061;BME280;59925;52.136;5.420;2023-05-03T00:35:07;103140.50;;;5.63;67.54
72061;BME280;59925;52.136;5.420;2023-05-03T00:37:33;103152.97;;;5.63;68.21
72061;BME280;59925;52.136;5.420;2023-05-03T00:40:00;103148.84;;;5.60;67.68
72061;BME280;59925;52.136;5.420;2023-05-03T00:42:26;103149.03;;;5.59;67.49
72061;BME280;59925;52.136;5.420;2023-05-03T00:44:53;103154.50;;;5.57;67.98
72061;BME280;59925;52.136;5.420;2023-05-03T00:47:21;103148.44;;;5.48;68.28
72061;BME280;59925;52.136;5.420;2023-05-03T00:49:47;103147.66;;;5.40;68.85
72061;BME280;59925;52.136;5.420;2023-05-03T00:52:14;103144.16;;;5.39;68.67
72061;BME280;59925;52.136;5.420;2023-05-03T00:54:41;103141.03;;;5.35;69.31
72061;BME280;59925;52.136;5.420;2023-05-03T00:57:08;103145.72;;;5.33;68.76
72061;BME280;59925;52.136;5.420;2023-05-03T00:59:35;103150.03;;;5.34;68.88
72061;BME280;59925;52.136;5.420;2023-05-03T01:02:01;103148.22;;;5.35;68.62
72061;BME280;59925;52.136;5.420;2023-05-03T01:04:28;103152.03;;;5.32;68.45
72061;BME280;59925;52.136;5.420;2023-05-03T01:07:11;103146.06;;;5.30;68.26
72061;BME280;59925;52.136;5.420;2023-05-03T01:10:03;103146.59;;;5.26;68.39
72061;BME280;59925;52.136;5.420;2023-05-03T01:18:11;103143.56;;;5.05;70.00
72061;BME280;59925;52.136;5.420;2023-05-03T01:20:43;103150.88;;;5.03;70.39
72061;BME280;59925;52.136;5.420;2023-05-03T01:26:18;103150.25;;;5.01;69.94
72061;BME280;59925;52.136;5.420;2023-05-03T01:28:46;103149.41;;;5.01;70.03
72061;BME280;59925;52.136;5.420;2023-05-03T01:31:18;103147.09;;;4.98;69.57
72061;BME280;59925;52.136;5.420;2023-05-03T01:36:34;103143.00;;;4.87;69.95
72061;BME280;59925;52.136;5.420;2023-05-03T01:39:17;103142.03;;;4.80;71.01
72061;BME280;59925;52.136;5.420;2023-05-03T01:41:45;103145.69;;;4.79;71.26
72061;BME280;59925;52.136;5.420;2023-05-03T01:44:14;103139.09;;;4.74;71.51
72061;BME280;59925;52.136;5.420;2023-05-03T01:46:44;103139.09;;;4.74;71.11
72061;BME280;59925;52.136;5.420;2023-05-03T01:49:12;103145.41;;;4.73;70.90
72061;BME280;59925;52.136;5.420;2023-05-03T01:51:38;103139.09;;;4.74;70.63
72061;BME280;59925;52.136;5.420;2023-05-03T01:54:05;103138.25;;;4.74;71.01
72061;BME280;59925;52.136;5.420;2023-05-03T01:56:33;103143.91;;;4.71;70.71
72061;BME280;59925;52.136;5.420;2023-05-03T01:59:02;103138.09;;;4.67;70.74
72061;BME280;59925;52.136;5.420;2023-05-03T02:01:28;103146.78;;;4.61;71.42
72061;BME280;59925;52.136;5.420;2023-05-03T02:03:54;103127.34;;;4.60;71.09
72061;BME280;59925;52.136;5.420;2023-05-03T02:06:23;103135.50;;;4.59;71.83
72061;BME280;59925;52.136;5.420;2023-05-03T02:08:50;103139.16;;;4.58;71.29
72061;BME280;59925;52.136;5.420;2023-05-03T02:11:16;103139.47;;;4.55;71.66
72061;BME280;59925;52.136;5.420;2023-05-03T02:13:42;103133.69;;;4.51;71.62
72061;BME280;59925;52.136;5.420;2023-05-03T02:16:09;103132.84;;;4.51;71.34
72061;BME280;59925;52.136;5.420;2023-05-03T02:18:35;103133.88;;;4.50;71.55
72061;BME280;59925;52.136;5.420;2023-05-03T02:21:03;103125.06;;;4.49;71.01
72061;BME280;59925;52.136;5.420;2023-05-03T02:23:30;103118.44;;;4.45;71.19
72061;BME280;59925;52.136;5.420;2023-05-03T02:25:56;103124.91;;;4.42;71.63
72061;BME280;59925;52.136;5.420;2023-05-03T02:28:23;103117.28;;;4.39;71.25
72061;BME280;59925;52.136;5.420;2023-05-03T02:30:49;103115.81;;;4.37;71.48
72061;BME280;59925;52.136;5.420;2023-05-03T02:33:16;103108.03;;;4.35;71.48
72061;BME280;59925;52.136;5.420;2023-05-03T02:35:42;103114.50;;;4.33;70.96
72061;BME280;59925;52.136;5.420;2023-05-03T02:38:09;103111.84;;;4.33;71.86
72061;BME280;59925;52.136;5.420;2023-05-03T02:40:36;103111.53;;;4.27;71.56
72061;BME280;59925;52.136;5.420;2023-05-03T02:43:03;103110.69;;;4.27;71.76
72061;BME280;59925;52.136;5.420;2023-05-03T02:45:29;103102.44;;;4.22;71.65
72061;BME280;59925;52.136;5.420;2023-05-03T02:47:56;103100.78;;;4.21;72.00
72061;BME280;59925;52.136;5.420;2023-05-03T02:50:22;103098.44;;;4.18;72.04
72061;BME280;59925;52.136;5.420;2023-05-03T02:52:49;103099.44;;;4.17;71.88
72061;BME280;59925;52.136;5.420;2023-05-03T02:55:15;103090.00;;;4.14;71.96
72061;BME280;59925;52.136;5.420;2023-05-03T02:57:42;103101.78;;;4.11;72.05
72061;BME280;59925;52.136;5.420;2023-05-03T03:00:09;103094.97;;;4.09;72.27
72061;BME280;59925;52.136;5.420;2023-05-03T03:02:36;103100.81;;;4.04;72.41
72061;BME280;59925;52.136;5.420;2023-05-03T03:05:03;103101.13;;;4.01;72.71
72061;BME280;59925;52.136;5.420;2023-05-03T03:07:29;103105.78;;;3.99;71.87
72061;BME280;59925;52.136;5.420;2023-05-03T03:09:56;103104.97;;;3.98;72.07
72061;BME280;59925;52.136;5.420;2023-05-03T03:12:22;103113.09;;;3.89;73.04
72061;BME280;59925;52.136;5.420;2023-05-03T03:14:50;103118.44;;;3.80;73.40
72061;BME280;59925;52.136;5.420;2023-05-03T03:17:16;103114.28;;;3.70;74.12
72061;BME280;59925;52.136;5.420;2023-05-03T03:19:43;103116.09;;;3.61;74.63
72061;BME280;59925;52.136;5.420;2023-05-03T03:22:10;103121.09;;;3.56;74.92
72061;BME280;59925;52.136;5.420;2023-05-03T03:24:36;103111.81;;;3.51;74.87
72061;BME280;59925;52.136;5.420;2023-05-03T03:27:03;103130.69;;;3.48;74.67
72061;BME280;59925;52.136;5.420;2023-05-03T03:29:31;103125.22;;;3.42;75.56
72061;BME280;59925;52.136;5.420;2023-05-03T03:31:58;103119.25;;;3.40;75.75
72061;BME280;59925;52.136;5.420;2023-05-03T03:34:24;103107.66;;;3.41;75.09
72061;BME280;59925;52.136;5.420;2023-05-03T03:36:51;103123.41;;;3.42;75.12
72061;BME280;59925;52.136;5.420;2023-05-03T03:39:18;103124.56;;;3.40;75.82
72061;BME280;59925;52.136;5.420;2023-05-03T03:41:44;103117.41;;;3.32;75.65
72061;BME280;59925;52.136;5.420;2023-05-03T03:44:11;103123.41;;;3.26;76.35
72061;BME280;59925;52.136;5.420;2023-05-03T03:46:37;103124.03;;;3.19;76.35
72061;BME280;59925;52.136;5.420;2023-05-03T03:49:04;103125.88;;;3.11;76.18
72061;BME280;59925;52.136;5.420;2023-05-03T03:51:30;103131.47;;;3.08;76.80
72061;BME280;59925;52.136;5.420;2023-05-03T03:53:57;103132.47;;;3.06;76.97
72061;BME280;59925;52.136;5.420;2023-05-03T03:56:24;103135.13;;;3.06;76.87
72061;BME280;59925;52.136;5.420;2023-05-03T03:58:50;103132.97;;;3.02;77.24
72061;BME280;59925;52.136;5.420;2023-05-03T04:01:17;103139.56;;;2.98;77.32
72061;BME280;59925;52.136;5.420;2023-05-03T04:03:44;103138.59;;;2.99;77.46
72061;BME280;59925;52.136;5.420;2023-05-03T04:06:11;103135.94;;;2.99;77.66
72061;BME280;59925;52.136;5.420;2023-05-03T04:08:38;103136.75;;;2.99;77.41
72061;BME280;59925;52.136;5.420;2023-05-03T04:11:09;103135.09;;;2.98;78.12
72061;BME280;59925;52.136;5.420;2023-05-03T04:13:37;103135.09;;;2.98;78.04
72061;BME280;59925;52.136;5.420;2023-05-03T04:16:07;103139.09;;;3.02;77.64
72061;BME280;59925;52.136;5.420;2023-05-03T04:18:33;103142.41;;;3.04;78.07
72061;BME280;59925;52.136;5.420;2023-05-03T04:21:00;103142.56;;;3.03;77.84
72061;BME280;59925;52.136;5.420;2023-05-03T04:23:27;103140.56;;;2.97;78.53
72061;BME280;59925;52.136;5.420;2023-05-03T04:25:53;103149.66;;;2.94;78.93
72061;BME280;59925;52.136;5.420;2023-05-03T04:28:20;103152.16;;;2.96;78.38
72061;BME280;59925;52.136;5.420;2023-05-03T04:30:47;103159.78;;;2.99;78.37
72061;BME280;59925;52.136;5.420;2023-05-03T04:33:14;103163.41;;;2.98;78.31
72061;BME280;59925;52.136;5.420;2023-05-03T04:35:42;103170.38;;;2.99;78.73
72061;BME280;59925;52.136;5.420;2023-05-03T04:38:08;103175.50;;;3.00;78.69
72061;BME280;59925;52.136;5.420;2023-05-03T04:40:34;103180.66;;;3.02;78.65
72061;BME280;59925;52.136;5.420;2023-05-03T04:43:01;103184.81;;;3.04;78.76
72061;BME280;59925;52.136;5.420;2023-05-03T04:45:28;103183.66;;;3.07;79.19
72061;BME280;59925;52.136;5.420;2023-05-03T04:47:54;103180.69;;;3.10;79.18
72061;BME280;59925;52.136;5.420;2023-05-03T04:50:21;103188.00;;;3.16;79.02
72061;BME280;59925;52.136;5.420;2023-05-03T04:52:47;103190.31;;;3.19;78.73
72061;BME280;59925;52.136;5.420;2023-05-03T04:55:14;103180.06;;;3.25;78.65
72061;BME280;59925;52.136;5.420;2023-05-03T04:57:41;103192.50;;;3.32;78.62
72061;BME280;59925;52.136;5.420;2023-05-03T05:00:08;103190.03;;;3.39;78.78
72061;BME280;59925;52.136;5.420;2023-05-03T05:02:38;103186.06;;;3.43;77.84
72061;BME280;59925;52.136;5.420;2023-05-03T05:05:05;103181.59;;;3.52;78.00
72061;BME280;59925;52.136;5.420;2023-05-03T05:07:32;103184.59;;;3.57;77.20
72061;BME280;59925;52.136;5.420;2023-05-03T05:09:59;103193.72;;;3.63;77.37
72061;BME280;59925;52.136;5.420;2023-05-03T05:12:26;103185.91;;;3.70;76.76
72061;BME280;59925;52.136;5.420;2023-05-03T05:14:53;103183.25;;;3.78;76.76
72061;BME280;59925;52.136;5.420;2023-05-03T05:17:19;103187.91;;;3.84;76.29
72061;BME280;59925;52.136;5.420;2023-05-03T05:19:47;103187.09;;;3.92;75.84
72061;BME280;59925;52.136;5.420;2023-05-03T05:22:13;103194.75;;;4.68;77.54
72061;BME280;59925;52.136;5.420;2023-05-03T05:24:39;103193.22;;;7.11;76.72
72061;BME280;59925;52.136;5.420;2023-05-03T05:27:06;103175.56;;;9.36;70.53
72061;BME280;59925;52.136;5.420;2023-05-03T05:29:33;103185.28;;;10.83;65.39
72061;BME280;59925;52.136;5.420;2023-05-03T05:31:59;103188.50;;;11.88;61.75
72061;BME280;59925;52.136;5.420;2023-05-03T05:34:28;103181.75;;;12.48;58.41
72061;BME280;59925;52.136;5.420;2023-05-03T05:37:07;103189.97;;;13.02;56.34
72061;BME280;59925;52.136;5.420;2023-05-03T05:39:34;103182.44;;;13.35;54.58
72061;BME280;59925;52.136;5.420;2023-05-03T05:42:00;103184.66;;;13.92;53.18
72061;BME280;59925;52.136;5.420;2023-05-03T05:44:27;103190.09;;;14.57;50.90
72061;BME280;59925;52.136;5.420;2023-05-03T05:46:53;103184.22;;;15.01;49.58
72061;BME280;59925;52.136;5.420;2023-05-03T05:49:20;103178.66;;;15.08;48.30
72061;BME280;59925;52.136;5.420;2023-05-03T05:51:46;103178.94;;;15.23;48.38
72061;BME280;59925;52.136;5.420;2023-05-03T05:54:13;103176.22;;;15.57;47.21
72061;BME280;59925;52.136;5.420;2023-05-03T05:56:39;103178.38;;;15.72;46.86
72061;BME280;59925;52.136;5.420;2023-05-03T05:59:06;103190.81;;;16.07;45.54
72061;BME280;59925;52.136;5.420;2023-05-03T06:01:33;103187.84;;;16.09;45.32
72061;BME280;59925;52.136;5.420;2023-05-03T06:03:59;103185.56;;;16.01;44.42
72061;BME280;59925;52.136;5.420;2023-05-03T06:06:26;103190.81;;;15.56;44.81
72061;BME280;59925;52.136;5.420;2023-05-03T06:08:53;103189.09;;;15.50;45.45
72061;BME280;59925;52.136;5.420;2023-05-03T06:11:20;103191.72;;;15.62;44.73
72061;BME280;59925;52.136;5.420;2023-05-03T06:13:47;103191.41;;;15.41;44.33
72061;BME280;59925;52.136;5.420;2023-05-03T06:16:14;103191.13;;;15.43;44.51
72061;BME280;59925;52.136;5.420;2023-05-03T06:18:40;103187.22;;;14.76;44.37
72061;BME280;59925;52.136;5.420;2023-05-03T06:21:06;103188.66;;;13.36;46.00
72061;BME280;59925;52.136;5.420;2023-05-03T06:23:33;103208.09;;;12.21;48.58
72061;BME280;59925;52.136;5.420;2023-05-03T06:26:00;103202.34;;;11.34;50.57
72061;BME280;59925;52.136;5.420;2023-05-03T06:28:27;103191.53;;;10.70;52.11
72061;BME280;59925;52.136;5.420;2023-05-03T06:30:54;103188.53;;;10.20;53.61
72061;BME280;59925;52.136;5.420;2023-05-03T06:33:21;103189.38;;;9.93;54.47
72061;BME280;59925;52.136;5.420;2023-05-03T06:35:47;103181.34;;;9.80;55.43
72061;BME280;59925;52.136;5.420;2023-05-03T06:38:14;103178.25;;;9.70;56.05
72061;BME280;59925;52.136;5.420;2023-05-03T06:40:41;103187.94;;;9.57;56.30
72061;BME280;59925;52.136;5.420;2023-05-03T06:43:07;103181.53;;;9.51;56.50
72061;BME280;59925;52.136;5.420;2023-05-03T06:45:34;103185.06;;;9.52;57.27
72061;BME280;59925;52.136;5.420;2023-05-03T06:48:01;103176.41;;;9.63;57.57
72061;BME280;59925;52.136;5.420;2023-05-03T06:50:27;103179.28;;;9.62;57.54
72061;BME280;59925;52.136;5.420;2023-05-03T06:52:54;103174.38;;;9.72;57.79
72061;BME280;59925;52.136;5.420;2023-05-03T06:55:20;103185.28;;;9.84;58.54
72061;BME280;59925;52.136;5.420;2023-05-03T06:57:47;103177.84;;;9.86;57.47
72061;BME280;59925;52.136;5.420;2023-05-03T07:00:14;103172.91;;;9.90;57.28
72061;BME280;59925;52.136;5.420;2023-05-03T07:02:41;103176.59;;;9.95;57.74
72061;BME280;59925;52.136;5.420;2023-05-03T07:05:08;103180.09;;;10.09;58.04
72061;BME280;59925;52.136;5.420;2023-05-03T07:07:35;103172.88;;;10.10;57.20
72061;BME280;59925;52.136;5.420;2023-05-03T07:10:01;103171.44;;;10.01;57.08
72061;BME280;59925;52.136;5.420;2023-05-03T07:12:29;103168.75;;;10.14;57.65
72061;BME280;59925;52.136;5.420;2023-05-03T07:14:55;103167.28;;;10.32;57.23
72061;BME280;59925;52.136;5.420;2023-05-03T07:17:23;103159.63;;;10.35;56.60
72061;BME280;59925;52.136;5.420;2023-05-03T07:19:50;103156.34;;;10.33;55.69
72061;BME280;59925;52.136;5.420;2023-05-03T07:22:17;103159.66;;;10.28;55.18
72061;BME280;59925;52.136;5.420;2023-05-03T07:24:45;103159.84;;;10.27;55.23
72061;BME280;59925;52.136;5.420;2023-05-03T07:27:12;103157.16;;;10.34;55.47
72061;BME280;59925;52.136;5.420;2023-05-03T07:29:40;103152.41;;;10.42;54.89
72061;BME280;59925;52.136;5.420;2023-05-03T07:32:07;103145.81;;;10.52;55.72
72061;BME280;59925;52.136;5.420;2023-05-03T07:34:33;103139.75;;;10.63;54.67
72061;BME280;59925;52.136;5.420;2023-05-03T07:37:00;103141.88;;;10.54;55.57
72061;BME280;59925;52.136;5.420;2023-05-03T07:39:27;103127.03;;;10.52;54.79
72061;BME280;59925;52.136;5.420;2023-05-03T07:41:53;103128.97;;;10.77;55.49
72061;BME280;59925;52.136;5.420;2023-05-03T07:44:20;103133.00;;;10.93;54.71
72061;BME280;59925;52.136;5.420;2023-05-03T07:46:46;103127.53;;;11.13;55.20
72061;BME280;59925;52.136;5.420;2023-05-03T07:49:13;103124.97;;;11.25;54.68
72061;BME280;59925;52.136;5.420;2023-05-03T07:51:39;103122.47;;;11.23;53.78
72061;BME280;59925;52.136;5.420;2023-05-03T07:54:06;103121.41;;;11.31;53.59
72061;BME280;59925;52.136;5.420;2023-05-03T07:56:33;103117.00;;;11.37;53.50
72061;BME280;59925;52.136;5.420;2023-05-03T07:58:59;103124.59;;;11.46;53.70
72061;BME280;59925;52.136;5.420;2023-05-03T08:01:35;103120.47;;;11.69;53.41
72061;BME280;59925;52.136;5.420;2023-05-03T08:04:02;103114.34;;;11.80;52.48
72061;BME280;59925;52.136;5.420;2023-05-03T08:06:30;103116.16;;;11.87;52.38
72061;BME280;59925;52.136;5.420;2023-05-03T08:08:57;103122.09;;;11.70;51.73
72061;BME280;59925;52.136;5.420;2023-05-03T08:11:25;103120.91;;;11.66;51.07
72061;BME280;59925;52.136;5.420;2023-05-03T08:13:52;103113.19;;;11.51;51.34
72061;BME280;59925;52.136;5.420;2023-05-03T08:16:19;103109.78;;;11.62;51.39
72061;BME280;59925;52.136;5.420;2023-05-03T08:18:45;103116.31;;;11.73;51.28
72061;BME280;59925;52.136;5.420;2023-05-03T08:21:12;103115.94;;;11.88;51.10
72061;BME280;59925;52.136;5.420;2023-05-03T08:23:40;103119.13;;;12.04;51.38
72061;BME280;59925;52.136;5.420;2023-05-03T08:26:06;103103.97;;;12.28;50.97
72061;BME280;59925;52.136;5.420;2023-05-03T08:28:34;103099.66;;;12.57;50.21
72061;BME280;59925;52.136;5.420;2023-05-03T08:31:01;103093.00;;;12.60;50.00
72061;BME280;59925;52.136;5.420;2023-05-03T08:33:30;103082.41;;;12.47;49.82
72061;BME280;59925;52.136;5.420;2023-05-03T08:35:57;103080.75;;;12.64;50.11
72061;BME280;59925;52.136;5.420;2023-05-03T08:38:24;103073.09;;;12.92;49.99
72061;BME280;59925;52.136;5.420;2023-05-03T08:40:54;103081.66;;;13.00;48.96
72061;BME280;59925;52.136;5.420;2023-05-03T08:43:22;103087.63;;;13.02;48.56
72061;BME280;59925;52.136;5.420;2023-05-03T08:45:52;103087.59;;;12.91;48.01
72061;BME280;59925;52.136;5.420;2023-05-03T08:48:19;103104.50;;;12.67;48.03
72061;BME280;59925;52.136;5.420;2023-05-03T08:50:48;103098.47;;;12.84;48.19
72061;BME280;59925;52.136;5.420;2023-05-03T08:53:17;103108.94;;;13.04;48.18
72061;BME280;59925;52.136;5.420;2023-05-03T08:55:44;103110.16;;;13.32;47.47
72061;BME280;59925;52.136;5.420;2023-05-03T08:58:10;103104.13;;;13.48;47.93
72061;BME280;59925;52.136;5.420;2023-05-03T09:00:38;103107.66;;;13.73;48.17
72061;BME280;59925;52.136;5.420;2023-05-03T09:03:05;103107.63;;;14.08;47.67
72061;BME280;59925;52.136;5.420;2023-05-03T09:05:34;103102.31;;;14.14;47.17
72061;BME280;59925;52.136;5.420;2023-05-03T09:08:03;103113.75;;;14.33;46.80
72061;BME280;59925;52.136;5.420;2023-05-03T09:10:31;103114.31;;;14.47;46.07
72061;BME280;59925;52.136;5.420;2023-05-03T09:13:00;103108.28;;;14.28;45.99
72061;BME280;59925;52.136;5.420;2023-05-03T09:15:28;103111.50;;;14.41;45.74
72061;BME280;59925;52.136;5.420;2023-05-03T09:18:08;103111.91;;;14.33;45.36
72061;BME280;59925;52.136;5.420;2023-05-03T09:20:38;103113.09;;;14.14;44.97
72061;BME280;59925;52.136;5.420;2023-05-03T09:23:06;103113.09;;;14.25;45.53
72061;BME280;59925;52.136;5.420;2023-05-03T09:25:47;103108.97;;;14.64;45.00
72061;BME280;59925;52.136;5.420;2023-05-03T09:28:15;103121.66;;;14.92;44.77
72061;BME280;59925;52.136;5.420;2023-05-03T09:30:43;103118.31;;;15.02;43.86
72061;BME280;59925;52.136;5.420;2023-05-03T09:33:10;103110.78;;;15.04;44.76
72061;BME280;59925;52.136;5.420;2023-05-03T09:35:37;103110.13;;;14.97;43.93
72061;BME280;59925;52.136;5.420;2023-05-03T09:38:04;103111.44;;;15.11;45.23
72061;BME280;59925;52.136;5.420;2023-05-03T09:40:31;103113.97;;;15.18;45.44
72061;BME280;59925;52.136;5.420;2023-05-03T09:43:08;103119.31;;;15.47;44.98
72061;BME280;59925;52.136;5.420;2023-05-03T09:45:36;103120.00;;;15.76;45.24
72061;BME280;59925;52.136;5.420;2023-05-03T09:48:04;103118.88;;;15.89;43.90
72061;BME280;59925;52.136;5.420;2023-05-03T09:50:32;103111.97;;;15.82;42.46
72061;BME280;59925;52.136;5.420;2023-05-03T09:53:08;103110.19;;;15.87;44.27
72061;BME280;59925;52.136;5.420;2023-05-03T09:55:37;103104.03;;;16.14;43.06
72061;BME280;59925;52.136;5.420;2023-05-03T09:58:05;103098.34;;;16.38;42.54
72061;BME280;59925;52.136;5.420;2023-05-03T10:00:36;103102.78;;;16.44;42.41
72061;BME280;59925;52.136;5.420;2023-05-03T10:03:09;103112.03;;;16.26;41.35
72061;BME280;59925;52.136;5.420;2023-05-03T10:05:44;103103.91;;;16.26;41.74
72061;BME280;59925;52.136;5.420;2023-05-03T10:08:17;103100.09;;;16.49;42.07
72061;BME280;59925;52.136;5.420;2023-05-03T10:10:45;103087.16;;;16.84;42.47
72061;BME280;59925;52.136;5.420;2023-05-03T10:13:16;103085.09;;;17.24;42.09
72061;BME280;59925;52.136;5.420;2023-05-03T10:15:43;103089.97;;;17.27;40.91
72061;BME280;59925;52.136;5.420;2023-05-03T10:18:12;103089.91;;;17.16;41.63
72061;BME280;59925;52.136;5.420;2023-05-03T10:20:44;103088.78;;;17.45;40.98
72061;BME280;59925;52.136;5.420;2023-05-03T10:23:16;103081.97;;;17.42;40.48
72061;BME280;59925;52.136;5.420;2023-05-03T10:26:18;103069.56;;;17.52;40.59
72061;BME280;59925;52.136;5.420;2023-05-03T10:28:45;103072.75;;;17.43;39.65
72061;BME280;59925;52.136;5.420;2023-05-03T10:31:44;103060.69;;;17.67;39.53
72061;BME280;59925;52.136;5.420;2023-05-03T10:34:25;103065.94;;;17.94;40.33
72061;BME280;59925;52.136;5.420;2023-05-03T10:36:55;103069.28;;;18.01;38.55
72061;BME280;59925;52.136;5.420;2023-05-03T10:39:22;103068.94;;;17.92;37.95
72061;BME280;59925;52.136;5.420;2023-05-03T10:44:28;103052.88;;;17.75;39.27
72061;BME280;59925;52.136;5.420;2023-05-03T10:47:16;103062.06;;;17.26;40.24
72061;BME280;59925;52.136;5.420;2023-05-03T10:49:43;103075.84;;;17.62;39.60
72061;BME280;59925;52.136;5.420;2023-05-03T10:55:01;103072.06;;;18.27;36.98
72061;BME280;59925;52.136;5.420;2023-05-03T10:57:30;103064.75;;;18.33;37.76
72061;BME280;59925;52.136;5.420;2023-05-03T10:59:57;103062.06;;;18.43;36.38
72061;BME280;59925;52.136;5.420;2023-05-03T11:02:30;103065.06;;;18.42;38.40
72061;BME280;59925;52.136;5.420;2023-05-03T11:05:01;103052.31;;;18.63;37.63
72061;BME280;59925;52.136;5.420;2023-05-03T11:07:31;103058.81;;;18.57;37.98
72061;BME280;59925;52.136;5.420;2023-05-03T11:09:57;103046.88;;;18.63;37.90
72061;BME280;59925;52.136;5.420;2023-05-03T11:12:24;103050.72;;;19.03;38.23
72061;BME280;59925;52.136;5.420;2023-05-03T11:14:50;103046.38;;;18.97;36.65
72061;BME280;59925;52.136;5.420;2023-05-03T11:17:17;103036.84;;;18.84;37.00
72061;BME280;59925;52.136;5.420;2023-05-03T11:19:43;103027.03;;;18.88;37.24
72061;BME280;59925;52.136;5.420;2023-05-03T11:22:10;103028.94;;;19.08;37.31
72061;BME280;59925;52.136;5.420;2023-05-03T11:24:37;103029.75;;;19.24;37.86
72061;BME280;59925;52.136;5.420;2023-05-03T11:27:04;103027.25;;;19.38;36.22
72061;BME280;59925;52.136;5.420;2023-05-03T11:29:33;103017.44;;;19.53;37.07
72061;BME280;59925;52.136;5.420;2023-05-03T11:32:00;103021.94;;;19.83;35.89
72061;BME280;59925;52.136;5.420;2023-05-03T11:34:26;103016.75;;;19.87;36.33
72061;BME280;59925;52.136;5.420;2023-05-03T11:36:53;103019.72;;;19.96;35.98
72061;BME280;59925;52.136;5.420;2023-05-03T11:39:20;103012.66;;;19.84;36.17
72061;BME280;59925;52.136;5.420;2023-05-03T11:42:00;103014.47;;;20.10;36.83
72061;BME280;59925;52.136;5.420;2023-05-03T11:44:26;103002.16;;;20.57;36.89
72061;BME280;59925;52.136;5.420;2023-05-03T11:46:53;102998.84;;;20.60;35.02
72061;BME280;59925;52.136;5.420;2023-05-03T11:49:20;103002.91;;;20.28;34.06
72061;BME280;59925;52.136;5.420;2023-05-03T11:51:47;103002.34;;;19.81;34.59
72061;BME280;59925;52.136;5.420;2023-05-03T11:54:18;102996.66;;;19.78;35.57
72061;BME280;59925;52.136;5.420;2023-05-03T11:56:55;102989.53;;;19.92;35.45
72061;BME280;59925;52.136;5.420;2023-05-03T11:59:39;102991.56;;;19.55;33.82
72061;BME280;59925;52.136;5.420;2023-05-03T12:02:07;102996.63;;;19.07;34.18
72061;BME280;59925;52.136;5.420;2023-05-03T12:04:36;102995.25;;;19.14;35.50
72061;BME280;59925;52.136;5.420;2023-05-03T12:07:08;102988.09;;;19.44;35.48
72061;BME280;59925;52.136;5.420;2023-05-03T12:09:36;102993.94;;;19.78;34.75
72061;BME280;59925;52.136;5.420;2023-05-03T12:12:04;102986.34;;;19.69;34.24
72061;BME280;59925;52.136;5.420;2023-05-03T12:14:57;102972.16;;;19.78;34.63
72061;BME280;59925;52.136;5.420;2023-05-03T12:17:37;102965.28;;;19.96;33.39
72061;BME280;59925;52.136;5.420;2023-05-03T12:20:18;102964.00;;;19.72;34.37
72061;BME280;59925;52.136;5.420;2023-05-03T12:22:50;102964.41;;;20.00;34.32
72061;BME280;59925;52.136;5.420;2023-05-03T12:25:21;102962.34;;;20.27;34.43
72061;BME280;59925;52.136;5.420;2023-05-03T12:27:53;102956.03;;;20.31;34.62
72061;BME280;59925;52.136;5.420;2023-05-03T12:30:41;102950.56;;;20.66;35.08
72061;BME280;59925;52.136;5.420;2023-05-03T12:33:11;102949.03;;;20.89;34.21
72061;BME280;59925;52.136;5.420;2023-05-03T12:35:41;102946.53;;;20.93;33.22
72061;BME280;59925;52.136;5.420;2023-05-03T12:38:12;102948.34;;;21.03;33.41
72061;BME280;59925;52.136;5.420;2023-05-03T12:40:42;102941.38;;;21.59;34.03
72061;BME280;59925;52.136;5.420;2023-05-03T12:43:10;102937.34;;;21.76;33.26
72061;BME280;59925;52.136;5.420;2023-05-03T12:45:37;102925.91;;;21.73;31.59
72061;BME280;59925;52.136;5.420;2023-05-03T12:48:06;102925.00;;;21.59;33.08
72061;BME280;59925;52.136;5.420;2023-05-03T12:50:34;102921.09;;;21.65;33.02
72061;BME280;59925;52.136;5.420;2023-05-03T12:53:04;102916.69;;;21.45;31.78
72061;BME280;59925;52.136;5.420;2023-05-03T12:55:37;102911.13;;;21.55;31.90
72061;BME280;59925;52.136;5.420;2023-05-03T12:58:09;102912.81;;;21.51;31.89
72061;BME280;59925;52.136;5.420;2023-05-03T13:00:38;102905.72;;;21.50;32.48
72061;BME280;59925;52.136;5.420;2023-05-03T13:03:24;102896.13;;;21.34;33.96
72061;BME280;59925;52.136;5.420;2023-05-03T13:05:58;102899.00;;;21.67;32.64
72061;BME280;59925;52.136;5.420;2023-05-03T13:08:26;102897.97;;;21.57;31.90
72061;BME280;59925;52.136;5.420;2023-05-03T13:10:59;102899.00;;;21.67;32.32
72061;BME280;59925;52.136;5.420;2023-05-03T13:13:26;102886.75;;;21.83;31.76
72061;BME280;59925;52.136;5.420;2023-05-03T13:15:53;102884.06;;;21.97;31.28
72061;BME280;59925;52.136;5.420;2023-05-03T13:18:20;102880.91;;;21.71;31.60